createdAt,value
2022-08-19T00:02:00.462Z,98426.41
2022-08-19T00:04:35.995Z,98429.63
2022-08-19T00:07:05.785Z,98434.44
2022-08-19T00:09:34.430Z,98430.00
2022-08-19T00:12:04.110Z,98440.06
2022-08-19T00:14:33.333Z,98432.41
2022-08-19T00:17:02.315Z,98420.72
2022-08-19T00:19:32.507Z,98413.00
2022-08-19T00:22:01.241Z,98423.06
2022-08-19T00:24:29.728Z,98429.91
2022-08-19T00:27:25.118Z,98429.09
2022-08-19T00:29:47.123Z,98433.50
2022-08-19T00:32:21.371Z,98428.25
2022-08-19T00:34:52.951Z,98425.81
2022-08-19T00:37:24.086Z,98420.97
2022-08-19T00:39:53.192Z,98417.31
2022-08-19T00:42:24.774Z,98414.47
2022-08-19T00:44:53.192Z,98413.66
2022-08-19T00:47:22.581Z,98420.06
2022-08-19T00:49:56.227Z,98419.63
2022-08-19T00:52:31.052Z,98428.06
2022-08-19T00:55:00.778Z,98434.50
2022-08-19T00:57:34.920Z,98426.03
2022-08-19T01:00:07.075Z,98417.16
2022-08-19T01:02:35.818Z,98422.00
2022-08-19T01:05:12.561Z,98410.69
2022-08-19T01:07:42.391Z,98405.06
2022-08-19T01:10:14.593Z,98411.09
2022-08-19T01:12:43.935Z,98408.28
2022-08-19T01:15:17.524Z,98421.13
2022-08-19T01:17:47.257Z,98420.72
2022-08-19T01:20:26.122Z,98405.41
2022-08-19T01:22:59.351Z,98412.25
2022-08-19T01:25:37.318Z,98417.47
2022-08-19T01:28:10.555Z,98421.91
2022-08-19T01:30:39.740Z,98421.50
2022-08-19T01:33:13.301Z,98423.50
2022-08-19T01:35:45.638Z,98422.69
2022-08-19T01:38:26.256Z,98431.53
2022-08-19T01:40:56.203Z,98426.31
2022-08-19T01:43:24.654Z,98437.19
2022-08-19T01:45:53.779Z,98439.19
2022-08-19T01:48:22.952Z,98443.63
2022-08-19T01:50:51.456Z,98446.44
2022-08-19T01:53:21.266Z,98438.41
2022-08-19T01:55:52.290Z,98438.00
2022-08-19T01:58:26.565Z,98442.00
2022-08-19T02:00:55.526Z,98452.06
2022-08-19T02:03:24.014Z,98461.34
2022-08-19T02:05:58.998Z,98475.00
2022-08-19T02:08:29.502Z,98479.41
2022-08-19T02:10:58.619Z,98475.78
2022-08-19T02:13:30.160Z,98476.59
2022-08-19T02:15:58.771Z,98470.16
2022-08-19T02:18:28.775Z,98475.00
2022-08-19T02:20:57.417Z,98478.59
2022-08-19T02:23:25.865Z,98469.75
2022-08-19T02:25:55.682Z,98458.47
2022-08-19T02:28:24.080Z,98454.47
2022-08-19T02:30:52.950Z,98466.16
2022-08-19T02:33:21.418Z,98476.66
2022-08-19T02:35:49.902Z,98465.78
2022-08-19T02:38:26.536Z,98447.31
2022-08-19T02:41:00.054Z,98456.94
2022-08-19T02:43:33.828Z,98458.97
2022-08-19T02:46:04.418Z,98454.94
2022-08-19T02:48:33.937Z,98454.94
2022-08-19T02:51:02.673Z,98449.31
2022-08-19T02:53:31.654Z,98440.88
2022-08-19T02:56:01.438Z,98447.72
2022-08-19T02:58:29.928Z,98448.13
2022-08-19T03:00:59.567Z,98452.13
2022-08-19T03:03:28.256Z,98453.75
2022-08-19T03:06:08.573Z,98447.72
2022-08-19T03:08:37.973Z,98453.75
2022-08-19T03:11:08.200Z,98467.03
2022-08-19T03:13:36.926Z,98463.03
2022-08-19T03:16:07.660Z,98458.22
2022-08-19T03:18:36.059Z,98462.22
2022-08-19T03:21:05.176Z,98468.66
2022-08-19T03:23:34.102Z,98470.28
2022-08-19T03:26:16.646Z,98463.84
2022-08-19T03:28:51.742Z,98469.06
2022-08-19T03:31:43.700Z,98471.13
2022-08-19T03:34:22.381Z,98496.47
2022-08-19T03:36:50.942Z,98495.66
2022-08-19T03:39:19.488Z,98500.09
2022-08-19T03:42:31.954Z,98502.50
2022-08-19T03:44:40.737Z,98496.47
2022-08-19T03:47:09.212Z,98506.50
2022-08-19T03:49:37.807Z,98515.72
2022-08-19T03:52:08.573Z,98517.72
2022-08-19T03:54:39.130Z,98520.53
2022-08-19T03:57:10.214Z,98524.13
2022-08-19T03:59:40.576Z,98522.91
2022-08-19T04:02:13.754Z,98516.84
2022-08-19T04:04:45.458Z,98522.88
2022-08-19T04:07:17.279Z,98532.53
2022-08-19T04:09:45.905Z,98534.09
2022-08-19T04:12:17.039Z,98533.69
2022-08-19T04:14:45.533Z,98543.34
2022-08-19T04:17:14.011Z,98540.53
2022-08-19T04:19:44.019Z,98541.31
2022-08-19T04:22:13.626Z,98542.56
2022-08-19T04:24:42.016Z,98540.16
2022-08-19T04:27:10.426Z,98548.66
2022-08-19T04:29:41.473Z,98549.47
2022-08-19T04:32:10.172Z,98553.13
2022-08-19T04:35:02.482Z,98540.69
2022-08-19T04:37:35.430Z,98561.69
2022-08-19T04:40:25.334Z,98570.13
2022-08-19T04:42:54.638Z,98573.41
2022-08-19T04:45:24.886Z,98566.97
2022-08-19T04:48:19.674Z,98569.44
2022-08-19T04:50:46.889Z,98574.34
2022-08-19T04:53:15.364Z,98577.19
2022-08-19T04:55:44.890Z,98583.66
2022-08-19T04:58:13.368Z,98583.69
2022-08-19T05:00:43.573Z,98570.81
2022-08-19T05:03:12.281Z,98570.06
2022-08-19T05:05:44.980Z,98573.28
2022-08-19T05:08:15.401Z,98572.09
2022-08-19T05:10:45.585Z,98580.56
2022-08-19T05:13:14.015Z,98581.41
2022-08-19T05:15:54.963Z,98580.22
2022-08-19T05:18:46.057Z,98582.25
2022-08-19T05:21:35.764Z,98579.47
2022-08-19T05:24:07.390Z,98598.03
2022-08-19T05:26:35.931Z,98596.00
2022-08-19T05:29:05.403Z,98606.16
2022-08-19T05:31:36.396Z,98609.38
2022-08-19T05:34:20.268Z,98609.00
2022-08-19T05:36:49.211Z,98611.81
2022-08-19T05:39:20.937Z,98614.19
2022-08-19T05:41:53.724Z,98625.88
2022-08-19T05:44:24.297Z,98636.78
2022-08-19T05:46:55.411Z,98644.03
2022-08-19T05:49:26.469Z,98643.22
2022-08-19T05:51:56.382Z,98654.91
2022-08-19T05:54:25.651Z,98657.34
2022-08-19T05:56:55.663Z,98655.28
2022-08-19T05:59:24.831Z,98667.00
2022-08-19T06:01:57.433Z,98664.56
2022-08-19T06:04:26.404Z,98660.56
2022-08-19T06:06:56.052Z,98673.06
2022-08-19T06:09:25.242Z,98674.66
2022-08-19T06:12:00.902Z,98681.94
2022-08-19T06:14:33.420Z,98684.41
2022-08-19T06:17:07.051Z,98688.88
2022-08-19T06:19:40.639Z,98679.63
2022-08-19T06:22:10.855Z,98684.50
2022-08-19T06:24:39.299Z,98679.69
2022-08-19T06:27:07.761Z,98673.25
2022-08-19T06:29:36.926Z,98673.28
2022-08-19T06:32:07.854Z,98663.22
2022-08-19T06:34:37.370Z,98668.94
2022-08-19T06:37:06.841Z,98666.91
2022-08-19T06:39:39.239Z,98663.31
2022-08-19T06:42:10.986Z,98668.59
2022-08-19T06:44:43.209Z,98685.59
2022-08-19T06:47:23.416Z,98684.81
2022-08-19T06:50:01.421Z,98676.75
2022-08-19T06:52:34.218Z,98687.28
2022-08-19T06:55:06.145Z,98683.63
2022-08-19T06:57:35.766Z,98678.00
2022-08-19T07:00:12.244Z,98664.69
2022-08-19T07:02:48.064Z,98658.59
2022-08-19T07:05:22.176Z,98663.81
2022-08-19T07:07:51.006Z,98670.25
2022-08-19T07:10:20.607Z,98675.09
2022-08-19T07:12:51.162Z,98664.19
2022-08-19T07:15:21.986Z,98654.03
2022-08-19T07:17:52.866Z,98647.97
2022-08-19T07:20:21.894Z,98637.44
2022-08-19T07:22:57.941Z,98645.47
2022-08-19T07:25:32.064Z,98637.72
2022-08-19T07:28:01.823Z,98649.41
2022-08-19T07:30:30.822Z,98639.28
2022-08-19T07:33:03.408Z,98631.94
2022-08-19T07:35:33.217Z,98626.63
2022-08-19T07:38:04.886Z,98622.53
2022-08-19T07:40:33.818Z,98628.59
2022-08-19T07:43:02.336Z,98619.59
2022-08-19T07:45:33.265Z,98619.53
2022-08-19T07:48:03.830Z,98604.47
2022-08-19T07:50:32.660Z,98586.50
2022-08-19T07:53:01.556Z,98585.53
2022-08-19T07:55:40.077Z,98585.41
2022-08-19T07:58:13.382Z,98579.25
2022-08-19T08:00:42.877Z,98592.84
2022-08-19T08:03:13.611Z,98599.91
2022-08-19T08:06:00.205Z,98601.78
2022-08-19T08:08:48.160Z,98611.69
2022-08-19T08:11:19.977Z,98610.41
2022-08-19T08:14:01.168Z,98619.28
2022-08-19T08:16:35.560Z,98613.00
2022-08-19T08:19:25.535Z,98610.75
2022-08-19T08:21:55.885Z,98620.22
2022-08-19T08:24:28.668Z,98630.97
2022-08-19T08:26:58.529Z,98635.19
2022-08-19T08:29:35.068Z,98636.19
2022-08-19T08:32:13.946Z,98636.88
2022-08-19T08:34:44.280Z,98639.09
2022-08-19T08:37:13.090Z,98638.09
2022-08-19T08:39:44.895Z,98643.19
2022-08-19T08:42:23.107Z,98655.16
2022-08-19T08:45:00.466Z,98648.03
2022-08-19T08:47:37.408Z,98655.16
2022-08-19T08:50:21.188Z,98655.66
2022-08-19T08:52:54.075Z,98659.03
2022-08-19T08:59:36.740Z,98674.34
2022-08-19T09:02:05.787Z,98657.09
2022-08-19T09:04:36.218Z,98659.88
2022-08-19T09:07:35.884Z,98650.06
2022-08-19T09:10:17.662Z,98653.56
2022-08-19T09:13:09.501Z,98645.44
2022-08-19T09:15:45.613Z,98635.09
2022-08-19T09:18:19.090Z,98633.34
2022-08-19T09:20:49.127Z,98627.66
2022-08-19T09:23:19.224Z,98629.22
2022-08-19T09:25:55.878Z,98623.00
2022-08-19T09:28:27.114Z,98615.59
2022-08-19T09:30:55.878Z,98605.06
2022-08-19T09:33:24.588Z,98597.69
2022-08-19T09:36:04.391Z,98603.69
2022-08-19T09:38:43.611Z,98591.66
2022-08-19T09:41:15.701Z,98590.59
2022-08-19T09:43:47.895Z,98589.84
2022-08-19T09:46:19.102Z,98597.84
2022-08-19T09:48:49.454Z,98602.34
2022-08-19T09:51:21.424Z,98605.19
2022-08-19T09:53:54.950Z,98609.19
2022-08-19T09:56:25.236Z,98611.91
2022-08-19T09:58:54.238Z,98606.97
2022-08-19T10:01:26.087Z,98604.72
2022-08-19T10:03:57.837Z,98607.88
2022-08-19T10:06:43.914Z,98600.25
2022-08-19T10:09:18.651Z,98589.09
2022-08-19T10:12:03.660Z,98598.63
2022-08-19T10:14:32.446Z,98596.63
2022-08-19T10:17:01.432Z,98593.50
2022-08-19T10:19:55.241Z,98601.06
2022-08-19T10:22:25.747Z,98604.25
2022-08-19T10:24:56.234Z,98601.06
2022-08-19T10:27:26.413Z,98603.09
2022-08-19T10:29:55.248Z,98603.66
2022-08-19T10:32:33.976Z,98618.06
2022-08-19T10:35:06.060Z,98632.16
2022-08-19T10:37:35.255Z,98633.72
2022-08-19T10:40:08.081Z,98649.72
2022-08-19T10:42:37.399Z,98667.53
2022-08-19T10:45:08.027Z,98673.25
2022-08-19T10:47:36.721Z,98659.25
2022-08-19T10:50:28.777Z,98639.97
2022-08-19T10:52:58.583Z,98625.69
2022-08-19T10:55:45.724Z,98620.91
2022-08-19T10:58:16.309Z,98626.00
2022-08-19T11:00:52.867Z,98633.38
2022-08-19T11:03:21.630Z,98646.84
2022-08-19T11:06:02.056Z,98667.25
2022-08-19T11:08:31.937Z,98659.66
2022-08-19T11:11:04.341Z,98655.69
2022-08-19T11:13:37.065Z,98631.41
2022-08-19T11:16:10.344Z,98631.31
2022-08-19T11:18:41.425Z,98631.16
2022-08-19T11:21:14.824Z,98617.53
2022-08-19T11:23:44.377Z,98614.75
2022-08-19T11:26:15.154Z,98618.03
2022-08-19T11:28:43.826Z,98615.56
2022-08-19T11:31:13.947Z,98612.59
2022-08-19T11:33:47.610Z,98613.25
2022-08-19T11:36:17.513Z,98612.44
2022-08-19T11:38:47.075Z,98615.75
2022-08-19T11:41:19.954Z,98602.59
2022-08-19T11:43:49.264Z,98601.31
2022-08-19T11:46:19.377Z,98586.22
2022-08-19T11:48:49.167Z,98585.22
2022-08-19T11:51:21.106Z,98588.69
2022-08-19T11:53:50.684Z,98580.19
2022-08-19T11:56:21.668Z,98572.00
2022-08-19T11:58:50.550Z,98582.53
2022-08-19T12:01:21.969Z,98593.88
2022-08-19T12:03:53.690Z,98587.47
2022-08-19T12:06:29.439Z,98595.97
2022-08-19T12:08:59.557Z,98578.59
2022-08-19T12:11:34.684Z,98573.50
2022-08-19T12:14:03.578Z,98582.91
2022-08-19T12:16:33.907Z,98588.03
2022-08-19T12:19:05.365Z,98581.38
2022-08-19T12:21:36.871Z,98572.69
2022-08-19T12:24:08.575Z,98582.13
2022-08-19T12:26:52.424Z,98585.66
2022-08-19T12:29:23.968Z,98592.22
2022-08-19T12:31:53.038Z,98589.41
2022-08-19T12:34:21.941Z,98583.50
2022-08-19T12:36:51.256Z,98602.06
2022-08-19T12:39:19.916Z,98596.06
2022-08-19T12:41:54.241Z,98610.13
2022-08-19T12:44:28.963Z,98618.97
2022-08-19T12:46:58.607Z,98629.78
2022-08-19T12:49:52.219Z,98636.53
2022-08-19T12:52:16.822Z,98660.16
2022-08-19T12:54:54.491Z,98659.75
2022-08-19T12:57:31.880Z,98650.28
2022-08-19T13:00:05.270Z,98644.28
2022-08-19T13:02:38.812Z,98632.41
2022-08-19T13:05:11.520Z,98623.66
2022-08-19T13:07:40.652Z,98626.59
2022-08-19T13:10:13.389Z,98616.94
2022-08-19T13:12:43.591Z,98625.13
2022-08-19T13:15:15.111Z,98601.47
2022-08-19T13:17:44.221Z,98599.78
2022-08-19T13:20:13.891Z,98584.72
2022-08-19T13:22:43.379Z,98597.19
2022-08-19T13:25:12.857Z,98598.28
2022-08-19T13:27:42.978Z,98595.75
2022-08-19T13:30:32.580Z,98595.56
2022-08-19T13:33:13.122Z,98622.66
2022-08-19T13:35:48.779Z,98618.72
2022-08-19T13:38:21.491Z,98632.28
2022-08-19T13:40:53.563Z,98633.66
2022-08-19T13:43:27.563Z,98633.34
2022-08-19T13:45:57.816Z,98628.66
2022-08-19T13:48:28.343Z,98623.59
2022-08-19T13:50:57.582Z,98618.63
2022-08-19T13:53:26.311Z,98598.97
2022-08-19T13:55:55.439Z,98604.41
2022-08-19T13:58:25.338Z,98612.53
2022-08-19T14:00:53.873Z,98605.22
2022-08-19T14:03:22.405Z,98602.34
2022-08-19T14:05:50.828Z,98610.78
2022-08-19T14:08:20.311Z,98611.50
2022-08-19T14:10:49.560Z,98619.47
2022-08-19T14:13:22.015Z,98612.38
2022-08-19T14:15:53.086Z,98614.91
2022-08-19T14:18:21.656Z,98609.59
2022-08-19T14:20:50.145Z,98593.97
2022-08-19T14:23:18.611Z,98596.84
2022-08-19T14:25:47.509Z,98586.06
2022-08-19T14:28:15.985Z,98568.00
2022-08-19T14:30:45.642Z,98567.47
2022-08-19T14:33:16.385Z,98556.50
2022-08-19T14:35:46.089Z,98548.03
2022-08-19T14:38:28.113Z,98532.94
2022-08-19T14:41:13.139Z,98516.81
2022-08-19T14:43:42.676Z,98517.41
2022-08-19T14:46:13.674Z,98519.41
2022-08-19T14:48:47.038Z,98502.78
2022-08-19T14:51:22.167Z,98504.56
2022-08-19T14:53:52.301Z,98495.25
2022-08-19T14:56:26.040Z,98494.03
2022-08-19T14:58:56.030Z,98496.53
2022-08-19T15:01:25.608Z,98488.88
2022-08-19T15:03:56.178Z,98482.13
2022-08-19T15:06:26.359Z,98467.25
2022-08-19T15:08:55.486Z,98456.81
2022-08-19T15:11:28.793Z,98446.41
2022-08-19T15:13:58.220Z,98447.28
2022-08-19T15:16:29.061Z,98459.56
2022-08-19T15:19:01.089Z,98453.63
2022-08-19T15:21:31.460Z,98454.97
2022-08-19T15:24:01.846Z,98451.84
2022-08-19T15:26:33.507Z,98456.41
2022-08-19T15:29:03.816Z,98458.53
2022-08-19T15:31:38.084Z,98460.41
2022-08-19T15:34:08.728Z,98458.19
2022-08-19T15:36:38.443Z,98469.00
2022-08-19T15:39:10.218Z,98466.44
2022-08-19T15:41:39.722Z,98479.34
2022-08-19T15:44:13.998Z,98475.94
2022-08-19T15:46:46.154Z,98464.78
2022-08-19T15:49:18.916Z,98477.84
2022-08-19T15:51:51.575Z,98488.06
2022-08-19T15:54:22.832Z,98486.91
2022-08-19T15:57:09.878Z,98495.53
2022-08-19T16:00:00.750Z,98487.56
2022-08-19T16:02:49.406Z,98494.16
2022-08-19T16:05:45.349Z,98487.22
2022-08-19T16:08:13.924Z,98481.81
2022-08-19T16:10:42.390Z,98484.66
2022-08-19T16:13:11.485Z,98491.59
2022-08-19T16:15:40.107Z,98491.28
2022-08-19T16:18:08.529Z,98503.72
2022-08-19T16:20:38.325Z,98511.72
2022-08-19T16:23:07.033Z,98513.25
2022-08-19T16:25:36.459Z,98515.13
2022-08-19T16:28:07.231Z,98517.38
2022-08-19T16:30:39.654Z,98520.41
2022-08-19T16:33:09.095Z,98518.91
2022-08-19T16:35:39.914Z,98510.94
2022-08-19T16:38:08.420Z,98513.91
2022-08-19T16:40:37.239Z,98511.25
2022-08-19T16:43:06.485Z,98509.75
2022-08-19T16:45:34.932Z,98512.75
2022-08-19T16:48:03.971Z,98506.72
2022-08-19T16:50:48.638Z,98512.53
2022-08-19T16:53:21.892Z,98514.66
2022-08-19T16:55:53.339Z,98509.84
2022-08-19T16:58:28.530Z,98512.34
2022-08-19T17:01:03.274Z,98511.25
2022-08-19T17:03:36.297Z,98510.53
2022-08-19T17:06:15.863Z,98520.38
2022-08-19T17:08:50.860Z,98518.41
2022-08-19T17:11:21.299Z,98527.00
2022-08-19T17:13:51.345Z,98523.44
2022-08-19T17:16:24.701Z,98524.31
2022-08-19T17:18:53.491Z,98520.78
2022-08-19T17:21:27.797Z,98520.91
2022-08-19T17:23:58.730Z,98518.13
2022-08-19T17:26:30.108Z,98514.56
2022-08-19T17:29:00.642Z,98521.56
2022-08-19T17:31:31.824Z,98518.78
2022-08-19T17:34:01.166Z,98520.06
2022-08-19T17:36:34.689Z,98514.09
2022-08-19T17:39:06.179Z,98510.50
2022-08-19T17:41:35.345Z,98511.34
2022-08-19T17:44:06.096Z,98513.06
2022-08-19T17:46:34.982Z,98519.59
2022-08-19T17:49:03.770Z,98528.19
2022-08-19T17:51:45.801Z,98528.69
2022-08-19T17:54:19.837Z,98517.78
2022-08-19T17:56:48.657Z,98521.09
2022-08-19T17:59:17.515Z,98526.78
2022-08-19T18:01:53.226Z,98534.50
2022-08-19T18:04:25.040Z,98551.13
2022-08-19T18:06:55.291Z,98573.81
2022-08-19T18:09:27.515Z,98580.72
2022-08-19T18:12:01.781Z,98592.91
2022-08-19T18:14:35.815Z,98597.38
2022-08-19T18:17:09.723Z,98606.28
2022-08-19T18:19:42.226Z,98589.72
2022-08-19T18:22:14.039Z,98594.97
2022-08-19T18:24:45.986Z,98593.78
2022-08-19T18:27:14.960Z,98598.63
2022-08-19T18:29:43.499Z,98599.84
2022-08-19T18:32:13.762Z,98596.63
2022-08-19T18:34:43.426Z,98584.09
2022-08-19T18:37:12.391Z,98576.03
2022-08-19T18:39:58.385Z,98567.50
2022-08-19T18:42:45.481Z,98557.84
2022-08-19T18:45:31.478Z,98550.16
2022-08-19T18:48:27.368Z,98549.38
2022-08-19T18:50:58.822Z,98539.72
2022-08-19T18:53:29.215Z,98542.16
2022-08-19T18:55:58.119Z,98557.50
2022-08-19T18:58:34.129Z,98579.31
2022-08-19T19:01:11.197Z,98581.75
2022-08-19T19:03:42.998Z,98591.44
2022-08-19T19:06:11.482Z,98594.69
2022-08-19T19:08:41.029Z,98593.84
2022-08-19T19:11:10.086Z,98593.47
2022-08-19T19:13:41.534Z,98595.94
2022-08-19T19:16:11.718Z,98588.69
2022-08-19T19:18:40.602Z,98599.22
2022-08-19T19:21:10.566Z,98594.38
2022-08-19T19:23:42.482Z,98583.06
2022-08-19T19:26:13.107Z,98566.91
2022-08-19T19:28:47.539Z,98593.94
2022-08-19T19:31:23.829Z,98599.50
2022-08-19T19:33:52.305Z,98619.66
2022-08-19T19:36:21.010Z,98632.13
2022-08-19T19:38:49.757Z,98643.44
2022-08-19T19:41:24.292Z,98653.91
2022-08-19T19:44:23.249Z,98669.66
2022-08-19T19:46:45.309Z,98676.94
2022-08-19T19:49:15.847Z,98692.28
2022-08-19T19:51:44.574Z,98705.63
2022-08-19T19:54:14.826Z,98721.38
2022-08-19T19:56:45.586Z,98745.19
2022-08-19T19:59:15.391Z,98760.94
2022-08-19T20:01:46.899Z,98774.63
2022-08-19T20:04:17.108Z,98777.72
2022-08-19T20:06:46.186Z,98780.84
2022-08-19T20:09:19.497Z,98785.56
2022-08-19T20:11:53.468Z,98791.81
2022-08-19T20:14:27.123Z,98788.81
2022-08-19T20:16:57.423Z,98791.47
2022-08-19T20:19:31.257Z,98790.84
2022-08-19T20:21:59.661Z,98782.59
2022-08-19T20:24:33.733Z,98773.06
2022-08-19T20:27:03.156Z,98777.22
2022-08-19T20:29:39.208Z,98774.97
2022-08-19T20:32:09.383Z,98757.53
2022-08-19T20:34:38.206Z,98765.00
2022-08-19T20:37:09.402Z,98780.16
2022-08-19T20:39:39.088Z,98792.91
2022-08-19T20:42:07.989Z,98800.84
2022-08-19T20:44:38.298Z,98800.81
2022-08-19T20:47:07.323Z,98802.78
2022-08-19T20:49:36.327Z,98809.97
2022-08-19T20:52:07.027Z,98812.38
2022-08-19T20:54:35.716Z,98809.56
2022-08-19T20:57:05.517Z,98815.59
2022-08-19T20:59:34.449Z,98823.66
2022-08-19T21:02:04.458Z,98820.50
2022-08-19T21:04:33.142Z,98826.53
2022-08-19T21:07:02.181Z,98803.59
2022-08-19T21:09:30.676Z,98812.84
2022-08-19T21:11:59.083Z,98813.66
2022-08-19T21:14:27.469Z,98814.09
2022-08-19T21:16:55.867Z,98815.34
2022-08-19T21:19:25.875Z,98830.25
2022-08-19T21:21:54.288Z,98832.34
2022-08-19T21:24:26.257Z,98824.72
2022-08-19T21:26:57.367Z,98827.16
2022-08-19T21:29:25.787Z,98845.97
2022-08-19T21:31:54.251Z,98840.66
2022-08-19T21:34:23.995Z,98838.94
2022-08-19T21:36:52.525Z,98827.91
2022-08-19T21:39:20.933Z,98828.19
2022-08-19T21:41:49.363Z,98834.06
2022-08-19T21:44:17.773Z,98814.25
2022-08-19T21:46:46.210Z,98804.06
2022-08-19T21:49:19.664Z,98793.94
2022-08-19T21:51:49.890Z,98790.63
2022-08-19T21:54:18.322Z,98785.31
2022-08-19T21:56:47.450Z,98792.47
2022-08-19T21:59:16.949Z,98779.19
2022-08-19T22:01:50.487Z,98773.13
2022-08-19T22:04:22.667Z,98771.06
2022-08-19T22:06:52.470Z,98770.25
2022-08-19T22:09:20.776Z,98769.44
2022-08-19T22:11:49.574Z,98763.81
2022-08-19T22:14:17.986Z,98759.38
2022-08-19T22:16:47.371Z,98763.38
2022-08-19T22:19:15.854Z,98768.19
2022-08-19T22:21:44.231Z,98771.00
2022-08-19T22:24:14.159Z,98779.00
2022-08-19T22:26:42.548Z,98777.00
2022-08-19T22:29:11.530Z,98793.84
2022-08-19T22:31:44.212Z,98783.34
2022-08-19T22:34:12.761Z,98775.75
2022-08-19T22:36:41.394Z,98768.88
2022-08-19T22:39:09.904Z,98770.81
2022-08-19T22:41:40.833Z,98784.78
2022-08-19T22:44:11.530Z,98792.75
2022-08-19T22:46:39.983Z,98795.13
2022-08-19T22:49:08.516Z,98801.13
2022-08-19T22:51:54.601Z,98801.13
2022-08-19T22:54:23.007Z,98793.06
2022-08-19T22:56:52.811Z,98792.63
2022-08-19T22:59:21.296Z,98791.81
2022-08-19T23:01:49.650Z,98789.38
2022-08-19T23:04:18.105Z,98787.38
2022-08-19T23:06:46.539Z,98800.63
2022-08-19T23:09:16.570Z,98804.25
2022-08-19T23:11:45.904Z,98811.13
2022-08-19T23:14:17.703Z,98815.97
2022-08-19T23:16:50.956Z,98809.63
2022-08-19T23:19:21.112Z,98824.53
2022-08-19T23:21:50.017Z,98827.81
2022-08-19T23:24:18.439Z,98836.28
2022-08-19T23:27:00.892Z,98838.81
2022-08-19T23:29:48.634Z,98834.88
2022-08-19T23:32:18.383Z,98837.38
2022-08-19T23:34:47.574Z,98826.19
2022-08-19T23:37:16.331Z,98824.66
2022-08-19T23:39:45.291Z,98823.91
2022-08-19T23:42:13.862Z,98821.53
2022-08-19T23:44:51.223Z,98816.38
2022-08-19T23:47:21.968Z,98814.81
2022-08-19T23:49:51.235Z,98817.25
2022-08-19T23:52:20.180Z,98815.25
2022-08-19T23:54:48.632Z,98827.31
2022-08-19T23:57:17.173Z,98821.25
2022-08-19T23:59:46.936Z,98830.88
